sensor_id;sensor_type;location;lat;lon;timestamp;temperature;humidity
52245;DHT22;55759;51.586;-1.758;2024-02-16T00:02:17;11.90;93.30
52245;DHT22;55759;51.586;-1.758;2024-02-16T00:04:43;11.90;93.30
52245;DHT22;55759;51.586;-1.758;2024-02-16T00:07:09;11.90;93.30
52245;DHT22;55759;51.586;-1.758;2024-02-16T00:09:34;11.90;93.30
52245;DHT22;55759;51.586;-1.758;2024-02-16T00:12:00;11.90;93.40
52245;DHT22;55759;51.586;-1.758;2024-02-16T00:14:25;11.90;93.30
52245;DHT22;55759;51.586;-1.758;2024-02-16T00:16:51;11.90;93.30
52245;DHT22;55759;51.586;-1.758;2024-02-16T00:19:17;11.80;93.30
52245;DHT22;55759;51.586;-1.758;2024-02-16T00:21:42;11.80;93.30
52245;DHT22;55759;51.586;-1.758;2024-02-16T00:24:08;11.80;93.20
52245;DHT22;55759;51.586;-1.758;2024-02-16T00:26:34;11.70;93.20
52245;DHT22;55759;51.586;-1.758;2024-02-16T00:28:59;11.70;93.20
52245;DHT22;55759;51.586;-1.758;2024-02-16T00:31:25;11.60;93.20
52245;DHT22;55759;51.586;-1.758;2024-02-16T00:33:50;11.60;93.30
52245;DHT22;55759;51.586;-1.758;2024-02-16T00:36:16;11.60;93.30
52245;DHT22;55759;51.586;-1.758;2024-02-16T00:38:41;11.60;93.20
52245;DHT22;55759;51.586;-1.758;2024-02-16T00:41:07;11.50;93.20
52245;DHT22;55759;51.586;-1.758;2024-02-16T00:43:32;11.50;93.30
52245;DHT22;55759;51.586;-1.758;2024-02-16T00:45:58;11.50;93.30
52245;DHT22;55759;51.586;-1.758;2024-02-16T00:48:24;11.50;93.40
52245;DHT22;55759;51.586;-1.758;2024-02-16T00:50:49;11.50;93.40
52245;DHT22;55759;51.586;-1.758;2024-02-16T00:53:15;11.50;93.40
52245;DHT22;55759;51.586;-1.758;2024-02-16T00:55:40;11.50;93.40
52245;DHT22;55759;51.586;-1.758;2024-02-16T00:58:07;11.50;93.40
52245;DHT22;55759;51.586;-1.758;2024-02-16T01:00:32;11.40;93.40
52245;DHT22;55759;51.586;-1.758;2024-02-16T01:02:58;11.50;93.50
52245;DHT22;55759;51.586;-1.758;2024-02-16T01:05:23;11.40;93.40
52245;DHT22;55759;51.586;-1.758;2024-02-16T01:07:49;11.40;93.40
52245;DHT22;55759;51.586;-1.758;2024-02-16T01:10:15;11.40;93.50
52245;DHT22;55759;51.586;-1.758;2024-02-16T01:12:40;11.40;93.50
52245;DHT22;55759;51.586;-1.758;2024-02-16T01:15:06;11.40;93.50
52245;DHT22;55759;51.586;-1.758;2024-02-16T01:17:31;11.40;93.50
52245;DHT22;55759;51.586;-1.758;2024-02-16T01:20:00;11.40;93.50
52245;DHT22;55759;51.586;-1.758;2024-02-16T01:22:25;11.30;93.50
52245;DHT22;55759;51.586;-1.758;2024-02-16T01:24:54;11.30;93.50
52245;DHT22;55759;51.586;-1.758;2024-02-16T01:27:20;11.30;93.50
52245;DHT22;55759;51.586;-1.758;2024-02-16T01:29:46;11.20;93.50
52245;DHT22;55759;51.586;-1.758;2024-02-16T01:32:12;11.20;93.50
52245;DHT22;55759;51.586;-1.758;2024-02-16T01:34:39;11.20;93.50
52245;DHT22;55759;51.586;-1.758;2024-02-16T01:37:06;11.20;93.60
52245;DHT22;55759;51.586;-1.758;2024-02-16T01:39:32;11.20;93.60
52245;DHT22;55759;51.586;-1.758;2024-02-16T01:41:57;11.20;93.70
52245;DHT22;55759;51.586;-1.758;2024-02-16T01:44:23;11.30;93.70
52245;DHT22;55759;51.586;-1.758;2024-02-16T01:46:48;11.30;93.70
52245;DHT22;55759;51.586;-1.758;2024-02-16T01:49:14;11.30;93.80
52245;DHT22;55759;51.586;-1.758;2024-02-16T01:51:40;11.30;93.80
52245;DHT22;55759;51.586;-1.758;2024-02-16T01:54:06;11.30;93.80
52245;DHT22;55759;51.586;-1.758;2024-02-16T01:56:31;11.30;93.70
52245;DHT22;55759;51.586;-1.758;2024-02-16T01:58:57;11.20;93.70
52245;DHT22;55759;51.586;-1.758;2024-02-16T02:01:22;11.20;93.70
52245;DHT22;55759;51.586;-1.758;2024-02-16T02:03:48;11.20;93.70
52245;DHT22;55759;51.586;-1.758;2024-02-16T02:06:14;11.20;93.80
52245;DHT22;55759;51.586;-1.758;2024-02-16T02:08:39;11.20;93.80
52245;DHT22;55759;51.586;-1.758;2024-02-16T02:11:05;11.20;93.80
52245;DHT22;55759;51.586;-1.758;2024-02-16T02:13:31;11.20;93.80
52245;DHT22;55759;51.586;-1.758;2024-02-16T02:15:57;11.20;93.70
52245;DHT22;55759;51.586;-1.758;2024-02-16T02:18:23;11.10;93.70
52245;DHT22;55759;51.586;-1.758;2024-02-16T02:20:50;11.10;93.70
52245;DHT22;55759;51.586;-1.758;2024-02-16T02:23:15;11.10;93.60
52245;DHT22;55759;51.586;-1.758;2024-02-16T02:25:41;11.00;93.60
52245;DHT22;55759;51.586;-1.758;2024-02-16T02:28:06;11.00;93.60
52245;DHT22;55759;51.586;-1.758;2024-02-16T02:30:33;10.90;93.50
52245;DHT22;55759;51.586;-1.758;2024-02-16T02:32:59;10.80;93.50
52245;DHT22;55759;51.586;-1.758;2024-02-16T02:35:24;10.80;93.60
52245;DHT22;55759;51.586;-1.758;2024-02-16T02:37:50;10.80;93.60
52245;DHT22;55759;51.586;-1.758;2024-02-16T02:40:15;10.90;93.60
52245;DHT22;55759;51.586;-1.758;2024-02-16T02:42:41;10.80;93.60
52245;DHT22;55759;51.586;-1.758;2024-02-16T02:45:06;10.80;93.50
52245;DHT22;55759;51.586;-1.758;2024-02-16T02:47:32;10.70;93.40
52245;DHT22;55759;51.586;-1.758;2024-02-16T02:49:58;10.70;93.40
52245;DHT22;55759;51.586;-1.758;2024-02-16T02:52:23;10.70;93.40
52245;DHT22;55759;51.586;-1.758;2024-02-16T02:54:49;10.60;93.40
52245;DHT22;55759;51.586;-1.758;2024-02-16T02:57:14;10.60;93.40
52245;DHT22;55759;51.586;-1.758;2024-02-16T02:59:40;10.60;93.40
52245;DHT22;55759;51.586;-1.758;2024-02-16T03:02:05;10.50;93.30
52245;DHT22;55759;51.586;-1.758;2024-02-16T03:04:31;10.50;93.40
52245;DHT22;55759;51.586;-1.758;2024-02-16T03:06:56;10.50;93.40
52245;DHT22;55759;51.586;-1.758;2024-02-16T03:09:22;10.50;93.40
52245;DHT22;55759;51.586;-1.758;2024-02-16T03:11:48;10.50;93.40
52245;DHT22;55759;51.586;-1.758;2024-02-16T03:14:13;10.40;93.40
52245;DHT22;55759;51.586;-1.758;2024-02-16T03:16:39;10.40;93.40
52245;DHT22;55759;51.586;-1.758;2024-02-16T03:19:05;10.40;93.50
52245;DHT22;55759;51.586;-1.758;2024-02-16T03:21:31;10.40;93.50
52245;DHT22;55759;51.586;-1.758;2024-02-16T03:23:58;10.40;93.50
52245;DHT22;55759;51.586;-1.758;2024-02-16T03:26:23;10.40;93.60
52245;DHT22;55759;51.586;-1.758;2024-02-16T03:28:49;10.40;93.50
52245;DHT22;55759;51.586;-1.758;2024-02-16T03:31:21;10.40;93.50
52245;DHT22;55759;51.586;-1.758;2024-02-16T03:33:49;10.30;93.50
52245;DHT22;55759;51.586;-1.758;2024-02-16T03:36:16;10.30;93.60
52245;DHT22;55759;51.586;-1.758;2024-02-16T03:38:45;10.30;93.60
52245;DHT22;55759;51.586;-1.758;2024-02-16T03:41:12;10.30;93.60
52245;DHT22;55759;51.586;-1.758;2024-02-16T03:43:38;10.30;93.70
52245;DHT22;55759;51.586;-1.758;2024-02-16T03:46:03;10.30;93.60
52245;DHT22;55759;51.586;-1.758;2024-02-16T03:48:29;10.30;93.60
52245;DHT22;55759;51.586;-1.758;2024-02-16T03:50:55;10.30;93.60
52245;DHT22;55759;51.586;-1.758;2024-02-16T03:53:21;10.30;93.60
52245;DHT22;55759;51.586;-1.758;2024-02-16T03:55:46;10.30;93.60
52245;DHT22;55759;51.586;-1.758;2024-02-16T03:58:12;10.30;93.60
52245;DHT22;55759;51.586;-1.758;2024-02-16T04:00:37;10.30;93.70
52245;DHT22;55759;51.586;-1.758;2024-02-16T04:03:04;10.20;93.60
52245;DHT22;55759;51.586;-1.758;2024-02-16T04:05:29;10.20;93.60
52245;DHT22;55759;51.586;-1.758;2024-02-16T04:07:58;10.20;93.60
52245;DHT22;55759;51.586;-1.758;2024-02-16T04:10:27;10.20;93.60
52245;DHT22;55759;51.586;-1.758;2024-02-16T04:12:53;10.20;93.60
52245;DHT22;55759;51.586;-1.758;2024-02-16T04:15:19;10.20;93.60
52245;DHT22;55759;51.586;-1.758;2024-02-16T04:17:44;10.20;93.60
52245;DHT22;55759;51.586;-1.758;2024-02-16T04:20:10;10.20;93.60
52245;DHT22;55759;51.586;-1.758;2024-02-16T04:22:36;10.10;93.60
52245;DHT22;55759;51.586;-1.758;2024-02-16T04:25:03;10.10;93.60
52245;DHT22;55759;51.586;-1.758;2024-02-16T04:27:29;10.10;93.60
52245;DHT22;55759;51.586;-1.758;2024-02-16T04:29:55;10.10;93.60
52245;DHT22;55759;51.586;-1.758;2024-02-16T04:32:21;10.10;93.60
52245;DHT22;55759;51.586;-1.758;2024-02-16T04:34:46;10.10;93.60
52245;DHT22;55759;51.586;-1.758;2024-02-16T04:37:15;10.10;93.60
52245;DHT22;55759;51.586;-1.758;2024-02-16T04:39:40;10.10;93.60
52245;DHT22;55759;51.586;-1.758;2024-02-16T04:42:06;10.10;93.60
52245;DHT22;55759;51.586;-1.758;2024-02-16T04:44:31;10.00;93.60
52245;DHT22;55759;51.586;-1.758;2024-02-16T04:46:57;10.00;93.60
52245;DHT22;55759;51.586;-1.758;2024-02-16T04:49:22;10.00;93.60
52245;DHT22;55759;51.586;-1.758;2024-02-16T04:51:48;10.00;93.60
52245;DHT22;55759;51.586;-1.758;2024-02-16T04:54:14;10.00;93.50
52245;DHT22;55759;51.586;-1.758;2024-02-16T04:56:40;10.00;93.50
52245;DHT22;55759;51.586;-1.758;2024-02-16T04:59:05;10.00;93.60
52245;DHT22;55759;51.586;-1.758;2024-02-16T05:01:31;10.00;93.60
52245;DHT22;55759;51.586;-1.758;2024-02-16T05:03:59;10.10;93.70
52245;DHT22;55759;51.586;-1.758;2024-02-16T05:06:27;10.00;93.60
52245;DHT22;55759;51.586;-1.758;2024-02-16T05:08:52;10.10;93.70
52245;DHT22;55759;51.586;-1.758;2024-02-16T05:11:18;10.10;93.70
52245;DHT22;55759;51.586;-1.758;2024-02-16T05:13:43;10.10;93.70
52245;DHT22;55759;51.586;-1.758;2024-02-16T05:16:09;10.10;93.60
52245;DHT22;55759;51.586;-1.758;2024-02-16T05:18:35;10.10;93.60
52245;DHT22;55759;51.586;-1.758;2024-02-16T05:21:00;10.10;93.50
52245;DHT22;55759;51.586;-1.758;2024-02-16T05:23:26;10.00;93.40
52245;DHT22;55759;51.586;-1.758;2024-02-16T05:25:51;10.00;93.40
52245;DHT22;55759;51.586;-1.758;2024-02-16T05:28:19;9.90;93.40
52245;DHT22;55759;51.586;-1.758;2024-02-16T05:30:45;9.90;93.30
52245;DHT22;55759;51.586;-1.758;2024-02-16T05:33:10;9.90;93.30
52245;DHT22;55759;51.586;-1.758;2024-02-16T05:35:36;9.90;93.30
52245;DHT22;55759;51.586;-1.758;2024-02-16T05:38:05;9.90;93.30
52245;DHT22;55759;51.586;-1.758;2024-02-16T05:40:35;9.90;93.30
52245;DHT22;55759;51.586;-1.758;2024-02-16T05:43:19;9.90;93.30
52245;DHT22;55759;51.586;-1.758;2024-02-16T05:45:44;9.90;93.30
52245;DHT22;55759;51.586;-1.758;2024-02-16T05:48:11;9.90;93.20
52245;DHT22;55759;51.586;-1.758;2024-02-16T05:50:37;9.90;93.20
52245;DHT22;55759;51.586;-1.758;2024-02-16T05:53:03;9.90;93.10
52245;DHT22;55759;51.586;-1.758;2024-02-16T05:55:28;9.90;93.10
52245;DHT22;55759;51.586;-1.758;2024-02-16T05:57:54;9.90;93.00
52245;DHT22;55759;51.586;-1.758;2024-02-16T06:00:20;9.80;92.90
52245;DHT22;55759;51.586;-1.758;2024-02-16T06:02:46;9.80;92.90
52245;DHT22;55759;51.586;-1.758;2024-02-16T06:05:12;9.80;92.80
52245;DHT22;55759;51.586;-1.758;2024-02-16T06:07:38;9.70;92.80
52245;DHT22;55759;51.586;-1.758;2024-02-16T06:10:03;9.70;92.80
52245;DHT22;55759;51.586;-1.758;2024-02-16T06:12:32;9.60;92.60
52245;DHT22;55759;51.586;-1.758;2024-02-16T06:14:58;9.50;92.50
52245;DHT22;55759;51.586;-1.758;2024-02-16T06:17:24;9.30;92.40
52245;DHT22;55759;51.586;-1.758;2024-02-16T06:19:50;9.20;92.40
52245;DHT22;55759;51.586;-1.758;2024-02-16T06:22:16;9.10;92.30
52245;DHT22;55759;51.586;-1.758;2024-02-16T06:24:41;9.00;92.40
52245;DHT22;55759;51.586;-1.758;2024-02-16T06:27:07;8.90;92.40
52245;DHT22;55759;51.586;-1.758;2024-02-16T06:29:36;8.80;92.50
52245;DHT22;55759;51.586;-1.758;2024-02-16T06:32:01;8.70;92.50
52245;DHT22;55759;51.586;-1.758;2024-02-16T06:34:30;8.70;92.50
52245;DHT22;55759;51.586;-1.758;2024-02-16T06:36:56;8.60;92.60
52245;DHT22;55759;51.586;-1.758;2024-02-16T06:39:22;8.60;92.70
52245;DHT22;55759;51.586;-1.758;2024-02-16T06:41:47;8.50;92.70
52245;DHT22;55759;51.586;-1.758;2024-02-16T06:44:14;8.50;92.80
52245;DHT22;55759;51.586;-1.758;2024-02-16T06:46:41;8.40;92.80
52245;DHT22;55759;51.586;-1.758;2024-02-16T06:49:06;8.40;92.80
52245;DHT22;55759;51.586;-1.758;2024-02-16T06:51:39;8.40;92.90
52245;DHT22;55759;51.586;-1.758;2024-02-16T06:54:05;8.30;92.90
52245;DHT22;55759;51.586;-1.758;2024-02-16T06:56:31;8.40;93.10
52245;DHT22;55759;51.586;-1.758;2024-02-16T06:58:56;8.40;93.10
52245;DHT22;55759;51.586;-1.758;2024-02-16T07:01:22;8.50;93.30
52245;DHT22;55759;51.586;-1.758;2024-02-16T07:03:47;8.60;93.40
52245;DHT22;55759;51.586;-1.758;2024-02-16T07:06:13;8.60;93.50
52245;DHT22;55759;51.586;-1.758;2024-02-16T07:08:39;8.70;93.50
52245;DHT22;55759;51.586;-1.758;2024-02-16T07:11:05;8.70;93.50
52245;DHT22;55759;51.586;-1.758;2024-02-16T07:13:34;8.70;93.40
52245;DHT22;55759;51.586;-1.758;2024-02-16T07:16:00;8.70;93.40
52245;DHT22;55759;51.586;-1.758;2024-02-16T07:18:25;8.70;93.40
52245;DHT22;55759;51.586;-1.758;2024-02-16T07:20:51;8.80;93.40
52245;DHT22;55759;51.586;-1.758;2024-02-16T07:23:16;8.80;93.40
52245;DHT22;55759;51.586;-1.758;2024-02-16T07:25:46;8.80;93.20
52245;DHT22;55759;51.586;-1.758;2024-02-16T07:28:12;8.60;93.00
52245;DHT22;55759;51.586;-1.758;2024-02-16T07:30:37;8.60;92.90
52245;DHT22;55759;51.586;-1.758;2024-02-16T07:33:06;8.50;92.70
52245;DHT22;55759;51.586;-1.758;2024-02-16T07:35:32;8.40;92.60
52245;DHT22;55759;51.586;-1.758;2024-02-16T07:37:58;8.40;92.60
52245;DHT22;55759;51.586;-1.758;2024-02-16T07:40:24;8.30;92.50
52245;DHT22;55759;51.586;-1.758;2024-02-16T07:42:49;8.20;92.50
52245;DHT22;55759;51.586;-1.758;2024-02-16T07:45:15;8.20;92.50
52245;DHT22;55759;51.586;-1.758;2024-02-16T07:47:41;8.20;92.50
52245;DHT22;55759;51.586;-1.758;2024-02-16T07:50:07;8.10;92.50
52245;DHT22;55759;51.586;-1.758;2024-02-16T07:52:32;8.10;92.50
52245;DHT22;55759;51.586;-1.758;2024-02-16T07:54:58;8.10;92.60
52245;DHT22;55759;51.586;-1.758;2024-02-16T07:57:24;8.10;92.60
52245;DHT22;55759;51.586;-1.758;2024-02-16T07:59:49;8.10;92.60
52245;DHT22;55759;51.586;-1.758;2024-02-16T08:02:15;8.10;92.60
52245;DHT22;55759;51.586;-1.758;2024-02-16T08:04:46;8.10;92.60
52245;DHT22;55759;51.586;-1.758;2024-02-16T08:07:11;8.10;92.60
52245;DHT22;55759;51.586;-1.758;2024-02-16T08:09:37;8.10;92.60
52245;DHT22;55759;51.586;-1.758;2024-02-16T08:12:03;8.10;92.60
52245;DHT22;55759;51.586;-1.758;2024-02-16T08:14:31;8.10;92.60
52245;DHT22;55759;51.586;-1.758;2024-02-16T08:16:58;8.20;92.50
52245;DHT22;55759;51.586;-1.758;2024-02-16T08:19:23;8.20;92.60
52245;DHT22;55759;51.586;-1.758;2024-02-16T08:21:49;8.20;92.60
52245;DHT22;55759;51.586;-1.758;2024-02-16T08:24:14;8.20;92.60
52245;DHT22;55759;51.586;-1.758;2024-02-16T08:26:40;8.30;92.70
52245;DHT22;55759;51.586;-1.758;2024-02-16T08:29:05;8.40;92.80
52245;DHT22;55759;51.586;-1.758;2024-02-16T08:31:31;8.50;92.70
52245;DHT22;55759;51.586;-1.758;2024-02-16T08:33:57;8.60;92.60
52245;DHT22;55759;51.586;-1.758;2024-02-16T08:36:22;8.70;92.40
52245;DHT22;55759;51.586;-1.758;2024-02-16T08:38:53;8.70;92.20
52245;DHT22;55759;51.586;-1.758;2024-02-16T08:41:19;8.70;92.10
52245;DHT22;55759;51.586;-1.758;2024-02-16T08:43:44;8.80;92.10
52245;DHT22;55759;51.586;-1.758;2024-02-16T08:46:10;8.90;92.20
52245;DHT22;55759;51.586;-1.758;2024-02-16T08:48:35;9.10;92.40
52245;DHT22;55759;51.586;-1.758;2024-02-16T08:51:01;9.30;92.50
52245;DHT22;55759;51.586;-1.758;2024-02-16T08:53:27;9.40;91.90
52245;DHT22;55759;51.586;-1.758;2024-02-16T08:55:53;9.60;91.70
52245;DHT22;55759;51.586;-1.758;2024-02-16T08:58:18;9.70;91.10
52245;DHT22;55759;51.586;-1.758;2024-02-16T09:00:44;9.80;91.20
52245;DHT22;55759;51.586;-1.758;2024-02-16T09:03:10;10.00;91.30
52245;DHT22;55759;51.586;-1.758;2024-02-16T09:05:35;10.10;90.90
52245;DHT22;55759;51.586;-1.758;2024-02-16T09:08:02;10.30;90.80
52245;DHT22;55759;51.586;-1.758;2024-02-16T09:10:28;10.50;90.00
52245;DHT22;55759;51.586;-1.758;2024-02-16T09:12:53;10.60;89.60
52245;DHT22;55759;51.586;-1.758;2024-02-16T09:15:19;10.70;89.60
52245;DHT22;55759;51.586;-1.758;2024-02-16T09:17:44;10.70;89.30
52245;DHT22;55759;51.586;-1.758;2024-02-16T09:20:11;10.70;89.40
52245;DHT22;55759;51.586;-1.758;2024-02-16T09:22:37;10.80;89.20
52245;DHT22;55759;51.586;-1.758;2024-02-16T09:25:02;10.80;88.50
52245;DHT22;55759;51.586;-1.758;2024-02-16T09:27:28;10.90;88.50
52245;DHT22;55759;51.586;-1.758;2024-02-16T09:29:54;11.10;88.60
52245;DHT22;55759;51.586;-1.758;2024-02-16T09:32:19;11.20;87.90
52245;DHT22;55759;51.586;-1.758;2024-02-16T09:34:45;11.30;87.90
52245;DHT22;55759;51.586;-1.758;2024-02-16T09:37:10;11.40;87.40
52245;DHT22;55759;51.586;-1.758;2024-02-16T09:39:38;11.50;87.40
52245;DHT22;55759;51.586;-1.758;2024-02-16T09:42:03;11.50;87.00
52245;DHT22;55759;51.586;-1.758;2024-02-16T09:44:29;11.50;86.90
52245;DHT22;55759;51.586;-1.758;2024-02-16T09:46:55;11.50;86.10
52245;DHT22;55759;51.586;-1.758;2024-02-16T09:49:21;11.60;86.40
52245;DHT22;55759;51.586;-1.758;2024-02-16T09:51:47;11.60;86.30
52245;DHT22;55759;51.586;-1.758;2024-02-16T09:54:12;11.60;86.30
52245;DHT22;55759;51.586;-1.758;2024-02-16T09:56:38;11.50;85.90
52245;DHT22;55759;51.586;-1.758;2024-02-16T09:59:03;11.30;86.90
52245;DHT22;55759;51.586;-1.758;2024-02-16T10:01:29;11.40;87.30
52245;DHT22;55759;51.586;-1.758;2024-02-16T10:04:01;11.70;87.50
52245;DHT22;55759;51.586;-1.758;2024-02-16T10:06:30;12.20;86.20
52245;DHT22;55759;51.586;-1.758;2024-02-16T10:08:56;12.40;84.90
52245;DHT22;55759;51.586;-1.758;2024-02-16T10:11:25;12.60;84.10
52245;DHT22;55759;51.586;-1.758;2024-02-16T10:13:58;12.80;83.10
52245;DHT22;55759;51.586;-1.758;2024-02-16T10:16:23;12.90;82.40
52245;DHT22;55759;51.586;-1.758;2024-02-16T10:18:49;13.00;81.10
52245;DHT22;55759;51.586;-1.758;2024-02-16T10:21:23;13.10;81.20
52245;DHT22;55759;51.586;-1.758;2024-02-16T10:24:02;13.00;81.10
52245;DHT22;55759;51.586;-1.758;2024-02-16T10:26:28;12.90;80.80
52245;DHT22;55759;51.586;-1.758;2024-02-16T10:28:54;12.90;80.60
52245;DHT22;55759;51.586;-1.758;2024-02-16T10:31:21;12.80;81.00
52245;DHT22;55759;51.586;-1.758;2024-02-16T10:33:58;12.90;81.70
52245;DHT22;55759;51.586;-1.758;2024-02-16T10:36:27;13.00;81.30
52245;DHT22;55759;51.586;-1.758;2024-02-16T10:38:55;13.10;80.60
52245;DHT22;55759;51.586;-1.758;2024-02-16T10:41:28;13.20;80.20
52245;DHT22;55759;51.586;-1.758;2024-02-16T10:43:56;13.10;79.70
52245;DHT22;55759;51.586;-1.758;2024-02-16T10:46:22;13.10;79.80
52245;DHT22;55759;51.586;-1.758;2024-02-16T10:48:48;13.00;80.10
52245;DHT22;55759;51.586;-1.758;2024-02-16T10:51:14;13.10;79.90
52245;DHT22;55759;51.586;-1.758;2024-02-16T10:53:41;13.30;79.30
52245;DHT22;55759;51.586;-1.758;2024-02-16T10:56:07;13.30;78.30
52245;DHT22;55759;51.586;-1.758;2024-02-16T10:58:33;13.10;77.80
52245;DHT22;55759;51.586;-1.758;2024-02-16T11:01:07;13.00;78.30
52245;DHT22;55759;51.586;-1.758;2024-02-16T11:03:32;13.00;79.20
52245;DHT22;55759;51.586;-1.758;2024-02-16T11:05:58;13.20;79.50
52245;DHT22;55759;51.586;-1.758;2024-02-16T11:08:24;13.30;79.20
52245;DHT22;55759;51.586;-1.758;2024-02-16T11:10:54;13.20;78.00
52245;DHT22;55759;51.586;-1.758;2024-02-16T11:13:27;13.10;78.50
52245;DHT22;55759;51.586;-1.758;2024-02-16T11:18:25;13.10;78.60
52245;DHT22;55759;51.586;-1.758;2024-02-16T11:20:51;13.40;78.10
52245;DHT22;55759;51.586;-1.758;2024-02-16T11:23:24;13.50;77.80
52245;DHT22;55759;51.586;-1.758;2024-02-16T11:25:50;13.60;77.30
52245;DHT22;55759;51.586;-1.758;2024-02-16T11:28:16;13.80;77.20
52245;DHT22;55759;51.586;-1.758;2024-02-16T11:30:43;14.00;75.70
52245;DHT22;55759;51.586;-1.758;2024-02-16T11:33:12;13.90;75.20
52245;DHT22;55759;51.586;-1.758;2024-02-16T11:35:37;13.70;75.50
52245;DHT22;55759;51.586;-1.758;2024-02-16T11:38:04;13.80;74.90
52245;DHT22;55759;51.586;-1.758;2024-02-16T11:40:32;13.80;74.10
52245;DHT22;55759;51.586;-1.758;2024-02-16T11:43:01;13.70;74.10
52245;DHT22;55759;51.586;-1.758;2024-02-16T11:45:33;13.40;74.00
52245;DHT22;55759;51.586;-1.758;2024-02-16T11:48:08;13.20;75.10
52245;DHT22;55759;51.586;-1.758;2024-02-16T11:50:35;13.20;74.50
52245;DHT22;55759;51.586;-1.758;2024-02-16T11:53:00;13.20;74.50
52245;DHT22;55759;51.586;-1.758;2024-02-16T11:55:26;13.10;74.90
52245;DHT22;55759;51.586;-1.758;2024-02-16T11:57:51;12.90;75.00
52245;DHT22;55759;51.586;-1.758;2024-02-16T12:00:18;12.70;75.70
52245;DHT22;55759;51.586;-1.758;2024-02-16T12:02:44;12.70;76.00
52245;DHT22;55759;51.586;-1.758;2024-02-16T12:05:13;12.70;76.70
52245;DHT22;55759;51.586;-1.758;2024-02-16T12:07:39;12.70;76.00
52245;DHT22;55759;51.586;-1.758;2024-02-16T12:10:08;12.70;75.80
52245;DHT22;55759;51.586;-1.758;2024-02-16T12:12:34;12.70;75.10
52245;DHT22;55759;51.586;-1.758;2024-02-16T12:15:00;12.70;75.60
52245;DHT22;55759;51.586;-1.758;2024-02-16T12:17:25;12.70;76.50
52245;DHT22;55759;51.586;-1.758;2024-02-16T12:19:51;12.80;76.10
52245;DHT22;55759;51.586;-1.758;2024-02-16T12:22:17;12.90;75.60
52245;DHT22;55759;51.586;-1.758;2024-02-16T12:24:52;13.00;74.90
52245;DHT22;55759;51.586;-1.758;2024-02-16T12:27:18;13.00;74.30
52245;DHT22;55759;51.586;-1.758;2024-02-16T12:29:44;13.00;74.30
52245;DHT22;55759;51.586;-1.758;2024-02-16T12:32:09;13.00;73.30
52245;DHT22;55759;51.586;-1.758;2024-02-16T12:34:35;13.10;73.10
52245;DHT22;55759;51.586;-1.758;2024-02-16T12:37:06;13.10;73.60
52245;DHT22;55759;51.586;-1.758;2024-02-16T12:39:36;13.10;72.80
52245;DHT22;55759;51.586;-1.758;2024-02-16T12:42:02;13.10;73.20
52245;DHT22;55759;51.586;-1.758;2024-02-16T12:44:28;13.10;73.30
52245;DHT22;55759;51.586;-1.758;2024-02-16T12:46:53;13.30;73.00
52245;DHT22;55759;51.586;-1.758;2024-02-16T12:49:19;13.50;72.70
52245;DHT22;55759;51.586;-1.758;2024-02-16T12:51:50;13.50;71.50
52245;DHT22;55759;51.586;-1.758;2024-02-16T12:54:16;13.40;71.30
52245;DHT22;55759;51.586;-1.758;2024-02-16T12:56:47;13.40;71.20
52245;DHT22;55759;51.586;-1.758;2024-02-16T12:59:13;13.40;71.10
52245;DHT22;55759;51.586;-1.758;2024-02-16T13:01:39;13.60;71.60
52245;DHT22;55759;51.586;-1.758;2024-02-16T13:04:05;13.80;71.10
52245;DHT22;55759;51.586;-1.758;2024-02-16T13:06:31;13.90;70.70
52245;DHT22;55759;51.586;-1.758;2024-02-16T13:08:57;13.90;71.40
52245;DHT22;55759;51.586;-1.758;2024-02-16T13:11:22;13.90;70.50
52245;DHT22;55759;51.586;-1.758;2024-02-16T13:13:48;13.70;70.40
52245;DHT22;55759;51.586;-1.758;2024-02-16T13:16:13;13.70;72.00
52245;DHT22;55759;51.586;-1.758;2024-02-16T13:18:39;13.60;71.70
52245;DHT22;55759;51.586;-1.758;2024-02-16T13:21:04;13.50;71.20
52245;DHT22;55759;51.586;-1.758;2024-02-16T13:23:30;13.30;71.80
52245;DHT22;55759;51.586;-1.758;2024-02-16T13:25:56;13.40;71.90
52245;DHT22;55759;51.586;-1.758;2024-02-16T13:28:22;13.70;71.30
52245;DHT22;55759;51.586;-1.758;2024-02-16T13:30:47;14.10;70.40
52245;DHT22;55759;51.586;-1.758;2024-02-16T13:33:13;14.30;69.10
52245;DHT22;55759;51.586;-1.758;2024-02-16T13:35:38;14.20;68.40
52245;DHT22;55759;51.586;-1.758;2024-02-16T13:38:04;14.20;69.10
52245;DHT22;55759;51.586;-1.758;2024-02-16T13:40:30;15.40;68.70
52245;DHT22;55759;51.586;-1.758;2024-02-16T13:42:59;17.20;64.00
52245;DHT22;55759;51.586;-1.758;2024-02-16T13:48:35;20.60;56.70
52245;DHT22;55759;51.586;-1.758;2024-02-16T13:51:02;20.50;53.00
52245;DHT22;55759;51.586;-1.758;2024-02-16T13:53:28;19.30;51.00
52245;DHT22;55759;51.586;-1.758;2024-02-16T13:55:55;18.10;54.10
52245;DHT22;55759;51.586;-1.758;2024-02-16T13:58:21;17.60;55.60
52245;DHT22;55759;51.586;-1.758;2024-02-16T14:00:49;17.60;54.50
52245;DHT22;55759;51.586;-1.758;2024-02-16T14:03:15;16.50;57.30
52245;DHT22;55759;51.586;-1.758;2024-02-16T14:05:41;15.60;59.30
52245;DHT22;55759;51.586;-1.758;2024-02-16T14:08:07;14.90;61.40
52245;DHT22;55759;51.586;-1.758;2024-02-16T14:10:36;14.40;64.20
52245;DHT22;55759;51.586;-1.758;2024-02-16T14:13:02;14.20;64.50
52245;DHT22;55759;51.586;-1.758;2024-02-16T14:15:28;14.20;66.20
52245;DHT22;55759;51.586;-1.758;2024-02-16T14:17:53;14.90;66.40
52245;DHT22;55759;51.586;-1.758;2024-02-16T14:20:19;16.10;62.50
52245;DHT22;55759;51.586;-1.758;2024-02-16T14:22:47;16.20;60.00
52245;DHT22;55759;51.586;-1.758;2024-02-16T14:25:13;16.50;59.80
52245;DHT22;55759;51.586;-1.758;2024-02-16T14:27:39;16.50;58.30
52245;DHT22;55759;51.586;-1.758;2024-02-16T14:30:05;16.50;58.20
52245;DHT22;55759;51.586;-1.758;2024-02-16T14:32:30;16.40;58.20
52245;DHT22;55759;51.586;-1.758;2024-02-16T14:34:56;16.30;59.10
52245;DHT22;55759;51.586;-1.758;2024-02-16T14:37:22;16.00;59.40
52245;DHT22;55759;51.586;-1.758;2024-02-16T14:39:47;15.50;59.90
52245;DHT22;55759;51.586;-1.758;2024-02-16T14:42:13;14.90;60.90
52245;DHT22;55759;51.586;-1.758;2024-02-16T14:44:42;14.50;62.40
52245;DHT22;55759;51.586;-1.758;2024-02-16T14:47:10;14.30;64.10
52245;DHT22;55759;51.586;-1.758;2024-02-16T14:49:36;14.20;64.00
52245;DHT22;55759;51.586;-1.758;2024-02-16T14:52:02;14.10;65.30
52245;DHT22;55759;51.586;-1.758;2024-02-16T14:54:27;13.90;65.40
52245;DHT22;55759;51.586;-1.758;2024-02-16T14:56:53;13.80;66.40
52245;DHT22;55759;51.586;-1.758;2024-02-16T14:59:19;13.90;67.20
52245;DHT22;55759;51.586;-1.758;2024-02-16T15:01:44;13.90;66.90
52245;DHT22;55759;51.586;-1.758;2024-02-16T15:04:10;14.10;66.70
52245;DHT22;55759;51.586;-1.758;2024-02-16T15:06:36;14.10;66.80
52245;DHT22;55759;51.586;-1.758;2024-02-16T15:09:02;13.90;66.10
52245;DHT22;55759;51.586;-1.758;2024-02-16T15:11:33;13.70;66.90
52245;DHT22;55759;51.586;-1.758;2024-02-16T15:13:59;13.60;67.70
52245;DHT22;55759;51.586;-1.758;2024-02-16T15:16:24;13.50;68.80
52245;DHT22;55759;51.586;-1.758;2024-02-16T15:18:50;13.40;67.50
52245;DHT22;55759;51.586;-1.758;2024-02-16T15:21:18;13.30;67.50